sensor_id;sensor_type;location;lat;lon;timestamp;temperature;humidity
11188;DHT22;5650;52.700;7.306;2023-07-09T00:02:03;22.50;98.90
11188;DHT22;5650;52.700;7.306;2023-07-09T00:04:31;22.50;99.10
11188;DHT22;5650;52.700;7.306;2023-07-09T00:07:05;22.50;99.50
11188;DHT22;5650;52.700;7.306;2023-07-09T00:09:32;22.40;99.90
11188;DHT22;5650;52.700;7.306;2023-07-09T00:12:02;22.40;99.90
11188;DHT22;5650;52.700;7.306;2023-07-09T00:14:35;22.30;99.90
11188;DHT22;5650;52.700;7.306;2023-07-09T00:17:02;22.30;99.90
11188;DHT22;5650;52.700;7.306;2023-07-09T00:19:31;22.30;99.90
11188;DHT22;5650;52.700;7.306;2023-07-09T00:22:07;22.20;99.90
11188;DHT22;5650;52.700;7.306;2023-07-09T00:24:39;22.20;99.90
11188;DHT22;5650;52.700;7.306;2023-07-09T00:27:18;22.20;99.90
11188;DHT22;5650;52.700;7.306;2023-07-09T00:29:59;22.10;99.90
11188;DHT22;5650;52.700;7.306;2023-07-09T00:32:31;22.10;99.90
11188;DHT22;5650;52.700;7.306;2023-07-09T00:35:00;22.10;99.90
11188;DHT22;5650;52.700;7.306;2023-07-09T00:37:35;22.00;99.90
11188;DHT22;5650;52.700;7.306;2023-07-09T00:40:14;22.00;99.90
11188;DHT22;5650;52.700;7.306;2023-07-09T00:42:51;22.00;99.90
11188;DHT22;5650;52.700;7.306;2023-07-09T00:45:22;22.00;99.90
11188;DHT22;5650;52.700;7.306;2023-07-09T00:47:55;22.00;99.90
11188;DHT22;5650;52.700;7.306;2023-07-09T00:50:39;22.00;99.90
11188;DHT22;5650;52.700;7.306;2023-07-09T00:53:15;22.00;99.90
11188;DHT22;5650;52.700;7.306;2023-07-09T00:55:47;22.00;99.90
11188;DHT22;5650;52.700;7.306;2023-07-09T00:58:17;22.00;99.90
11188;DHT22;5650;52.700;7.306;2023-07-09T01:00:50;21.90;99.90
11188;DHT22;5650;52.700;7.306;2023-07-09T01:03:29;21.90;99.90
11188;DHT22;5650;52.700;7.306;2023-07-09T01:06:07;21.90;99.90
11188;DHT22;5650;52.700;7.306;2023-07-09T01:08:39;21.90;99.90
11188;DHT22;5650;52.700;7.306;2023-07-09T01:11:15;21.90;99.90
11188;DHT22;5650;52.700;7.306;2023-07-09T01:13:47;21.90;99.90
11188;DHT22;5650;52.700;7.306;2023-07-09T01:16:16;21.90;99.90
11188;DHT22;5650;52.700;7.306;2023-07-09T01:18:46;21.80;99.90
11188;DHT22;5650;52.700;7.306;2023-07-09T01:21:18;21.80;99.90
11188;DHT22;5650;52.700;7.306;2023-07-09T01:23:50;21.80;99.90
11188;DHT22;5650;52.700;7.306;2023-07-09T01:26:29;21.80;99.90
11188;DHT22;5650;52.700;7.306;2023-07-09T01:28:57;21.80;99.90
11188;DHT22;5650;52.700;7.306;2023-07-09T01:31:24;21.70;99.90
11188;DHT22;5650;52.700;7.306;2023-07-09T01:33:51;21.70;99.90
11188;DHT22;5650;52.700;7.306;2023-07-09T01:36:26;21.70;99.90
11188;DHT22;5650;52.700;7.306;2023-07-09T01:38:55;21.70;99.90
11188;DHT22;5650;52.700;7.306;2023-07-09T01:41:23;21.60;99.90
11188;DHT22;5650;52.700;7.306;2023-07-09T01:43:53;21.60;99.90
11188;DHT22;5650;52.700;7.306;2023-07-09T01:46:21;21.60;99.90
11188;DHT22;5650;52.700;7.306;2023-07-09T01:48:48;21.60;99.90
11188;DHT22;5650;52.700;7.306;2023-07-09T01:51:18;21.60;99.90
11188;DHT22;5650;52.700;7.306;2023-07-09T01:53:47;21.60;99.90
11188;DHT22;5650;52.700;7.306;2023-07-09T01:56:16;21.60;99.90
11188;DHT22;5650;52.700;7.306;2023-07-09T01:58:43;21.50;99.90
11188;DHT22;5650;52.700;7.306;2023-07-09T02:01:10;21.50;99.90
11188;DHT22;5650;52.700;7.306;2023-07-09T02:03:38;21.50;99.90
11188;DHT22;5650;52.700;7.306;2023-07-09T02:06:05;21.40;99.90
11188;DHT22;5650;52.700;7.306;2023-07-09T02:08:35;21.40;99.90
11188;DHT22;5650;52.700;7.306;2023-07-09T02:11:04;21.30;99.90
11188;DHT22;5650;52.700;7.306;2023-07-09T02:13:34;21.30;99.90
11188;DHT22;5650;52.700;7.306;2023-07-09T02:16:01;21.20;99.90
11188;DHT22;5650;52.700;7.306;2023-07-09T02:18:34;21.20;99.90
11188;DHT22;5650;52.700;7.306;2023-07-09T02:21:02;21.10;99.90
11188;DHT22;5650;52.700;7.306;2023-07-09T02:23:29;21.10;99.90
11188;DHT22;5650;52.700;7.306;2023-07-09T02:25:56;21.10;99.90
11188;DHT22;5650;52.700;7.306;2023-07-09T02:28:27;21.00;99.90
11188;DHT22;5650;52.700;7.306;2023-07-09T02:30:54;21.00;99.90
11188;DHT22;5650;52.700;7.306;2023-07-09T02:33:25;21.00;99.90
11188;DHT22;5650;52.700;7.306;2023-07-09T02:35:52;21.00;99.90
11188;DHT22;5650;52.700;7.306;2023-07-09T02:38:19;20.90;99.90
11188;DHT22;5650;52.700;7.306;2023-07-09T02:40:49;20.90;99.90
11188;DHT22;5650;52.700;7.306;2023-07-09T02:43:18;20.90;99.90
11188;DHT22;5650;52.700;7.306;2023-07-09T02:45:46;20.90;99.90
11188;DHT22;5650;52.700;7.306;2023-07-09T02:48:23;20.90;99.90
11188;DHT22;5650;52.700;7.306;2023-07-09T02:50:50;20.90;99.90
11188;DHT22;5650;52.700;7.306;2023-07-09T02:53:17;20.90;99.90
11188;DHT22;5650;52.700;7.306;2023-07-09T02:55:47;20.90;99.90
11188;DHT22;5650;52.700;7.306;2023-07-09T02:58:14;20.90;99.90
11188;DHT22;5650;52.700;7.306;2023-07-09T03:00:42;20.90;99.90
11188;DHT22;5650;52.700;7.306;2023-07-09T03:03:13;20.80;99.90
11188;DHT22;5650;52.700;7.306;2023-07-09T03:05:44;20.80;99.90
11188;DHT22;5650;52.700;7.306;2023-07-09T03:08:17;20.70;99.90
11188;DHT22;5650;52.700;7.306;2023-07-09T03:10:47;20.80;99.90
11188;DHT22;5650;52.700;7.306;2023-07-09T03:13:14;20.70;99.90
11188;DHT22;5650;52.700;7.306;2023-07-09T03:15:41;20.70;99.90
11188;DHT22;5650;52.700;7.306;2023-07-09T03:18:10;20.70;99.90
11188;DHT22;5650;52.700;7.306;2023-07-09T03:20:51;20.60;99.90
11188;DHT22;5650;52.700;7.306;2023-07-09T03:23:18;20.70;99.90
11188;DHT22;5650;52.700;7.306;2023-07-09T03:25:48;20.60;99.90
11188;DHT22;5650;52.700;7.306;2023-07-09T03:28:15;20.70;99.90
11188;DHT22;5650;52.700;7.306;2023-07-09T03:30:43;20.60;99.90
11188;DHT22;5650;52.700;7.306;2023-07-09T03:33:16;20.60;99.90
11188;DHT22;5650;52.700;7.306;2023-07-09T03:35:48;20.60;99.90
11188;DHT22;5650;52.700;7.306;2023-07-09T03:38:19;20.60;99.90
11188;DHT22;5650;52.700;7.306;2023-07-09T03:40:50;20.60;99.90
11188;DHT22;5650;52.700;7.306;2023-07-09T03:43:17;20.60;99.90
11188;DHT22;5650;52.700;7.306;2023-07-09T03:45:48;20.60;99.90
11188;DHT22;5650;52.700;7.306;2023-07-09T03:48:17;20.60;99.90
11188;DHT22;5650;52.700;7.306;2023-07-09T03:50:49;20.60;99.90
11188;DHT22;5650;52.700;7.306;2023-07-09T03:53:17;20.60;99.90
11188;DHT22;5650;52.700;7.306;2023-07-09T03:55:46;20.60;99.90
11188;DHT22;5650;52.700;7.306;2023-07-09T03:58:16;20.60;99.90
11188;DHT22;5650;52.700;7.306;2023-07-09T04:00:52;20.70;99.90
11188;DHT22;5650;52.700;7.306;2023-07-09T04:03:19;20.70;99.90
11188;DHT22;5650;52.700;7.306;2023-07-09T04:05:51;20.70;99.90
11188;DHT22;5650;52.700;7.306;2023-07-09T04:08:21;20.70;99.90
11188;DHT22;5650;52.700;7.306;2023-07-09T04:10:48;20.90;99.90
11188;DHT22;5650;52.700;7.306;2023-07-09T04:13:15;21.00;99.90
11188;DHT22;5650;52.700;7.306;2023-07-09T04:15:46;21.20;99.90
11188;DHT22;5650;52.700;7.306;2023-07-09T04:18:19;21.50;99.90
11188;DHT22;5650;52.700;7.306;2023-07-09T04:20:53;21.70;99.90
11188;DHT22;5650;52.700;7.306;2023-07-09T04:23:21;22.00;99.90
11188;DHT22;5650;52.700;7.306;2023-07-09T04:25:48;22.20;99.90
11188;DHT22;5650;52.700;7.306;2023-07-09T04:28:15;22.30;99.90
11188;DHT22;5650;52.700;7.306;2023-07-09T04:30:47;22.40;99.90
11188;DHT22;5650;52.700;7.306;2023-07-09T04:33:19;22.40;99.90
11188;DHT22;5650;52.700;7.306;2023-07-09T04:35:46;22.40;99.90
11188;DHT22;5650;52.700;7.306;2023-07-09T04:38:18;22.40;99.90
11188;DHT22;5650;52.700;7.306;2023-07-09T04:40:55;22.40;99.90
11188;DHT22;5650;52.700;7.306;2023-07-09T04:43:23;22.40;99.90
11188;DHT22;5650;52.700;7.306;2023-07-09T04:45:50;22.50;99.90
11188;DHT22;5650;52.700;7.306;2023-07-09T04:48:19;22.50;99.90
11188;DHT22;5650;52.700;7.306;2023-07-09T04:50:46;22.50;99.90
11188;DHT22;5650;52.700;7.306;2023-07-09T04:53:20;22.60;99.90
11188;DHT22;5650;52.700;7.306;2023-07-09T04:55:49;22.60;99.90
11188;DHT22;5650;52.700;7.306;2023-07-09T04:58:22;22.60;99.90
11188;DHT22;5650;52.700;7.306;2023-07-09T05:00:49;22.70;99.90
11188;DHT22;5650;52.700;7.306;2023-07-09T05:03:18;22.90;99.90
11188;DHT22;5650;52.700;7.306;2023-07-09T05:05:48;23.30;99.90
11188;DHT22;5650;52.700;7.306;2023-07-09T05:08:15;23.30;99.90
11188;DHT22;5650;52.700;7.306;2023-07-09T05:10:46;23.30;99.90
11188;DHT22;5650;52.700;7.306;2023-07-09T05:13:13;23.30;99.90
11188;DHT22;5650;52.700;7.306;2023-07-09T05:15:47;23.40;99.90
11188;DHT22;5650;52.700;7.306;2023-07-09T05:18:15;23.40;99.90
11188;DHT22;5650;52.700;7.306;2023-07-09T05:20:47;23.50;99.90
11188;DHT22;5650;52.700;7.306;2023-07-09T05:23:14;23.60;99.90
11188;DHT22;5650;52.700;7.306;2023-07-09T05:25:41;24.00;99.90
11188;DHT22;5650;52.700;7.306;2023-07-09T05:28:09;24.60;99.90
11188;DHT22;5650;52.700;7.306;2023-07-09T05:30:42;25.10;99.90
11188;DHT22;5650;52.700;7.306;2023-07-09T05:33:17;25.70;99.90
11188;DHT22;5650;52.700;7.306;2023-07-09T05:35:44;26.30;99.90
11188;DHT22;5650;52.700;7.306;2023-07-09T05:38:12;26.70;99.30
11188;DHT22;5650;52.700;7.306;2023-07-09T05:40:39;27.00;98.60
11188;DHT22;5650;52.700;7.306;2023-07-09T05:43:13;27.30;97.90
11188;DHT22;5650;52.700;7.306;2023-07-09T05:45:44;27.70;97.20
11188;DHT22;5650;52.700;7.306;2023-07-09T05:48:14;28.00;96.30
11188;DHT22;5650;52.700;7.306;2023-07-09T05:50:44;28.30;95.60
11188;DHT22;5650;52.700;7.306;2023-07-09T05:53:11;28.50;94.80
11188;DHT22;5650;52.700;7.306;2023-07-09T05:55:45;28.90;94.50
11188;DHT22;5650;52.700;7.306;2023-07-09T05:58:14;29.10;93.90
11188;DHT22;5650;52.700;7.306;2023-07-09T06:00:52;29.40;93.40
11188;DHT22;5650;52.700;7.306;2023-07-09T06:03:23;29.60;92.70
11188;DHT22;5650;52.700;7.306;2023-07-09T06:05:51;29.50;92.60
11188;DHT22;5650;52.700;7.306;2023-07-09T06:08:18;29.30;92.00
11188;DHT22;5650;52.700;7.306;2023-07-09T06:11:02;29.30;92.00
11188;DHT22;5650;52.700;7.306;2023-07-09T06:13:31;29.40;92.20
11188;DHT22;5650;52.700;7.306;2023-07-09T06:16:08;29.50;91.80
11188;DHT22;5650;52.700;7.306;2023-07-09T06:18:35;29.80;91.90
11188;DHT22;5650;52.700;7.306;2023-07-09T06:21:03;30.10;91.50
11188;DHT22;5650;52.700;7.306;2023-07-09T06:23:30;30.30;91.10
11188;DHT22;5650;52.700;7.306;2023-07-09T06:26:06;30.30;91.00
11188;DHT22;5650;52.700;7.306;2023-07-09T06:28:37;30.20;90.80
11188;DHT22;5650;52.700;7.306;2023-07-09T06:31:04;30.00;90.80
11188;DHT22;5650;52.700;7.306;2023-07-09T06:33:34;29.60;91.10
11188;DHT22;5650;52.700;7.306;2023-07-09T06:36:01;29.40;91.70
11188;DHT22;5650;52.700;7.306;2023-07-09T06:38:29;29.30;92.00
11188;DHT22;5650;52.700;7.306;2023-07-09T06:41:05;29.40;92.00
11188;DHT22;5650;52.700;7.306;2023-07-09T06:43:36;29.70;92.00
11188;DHT22;5650;52.700;7.306;2023-07-09T06:46:10;30.00;91.60
11188;DHT22;5650;52.700;7.306;2023-07-09T06:48:38;30.40;91.10
11188;DHT22;5650;52.700;7.306;2023-07-09T06:51:05;30.60;90.80
11188;DHT22;5650;52.700;7.306;2023-07-09T06:53:38;30.70;90.50
11188;DHT22;5650;52.700;7.306;2023-07-09T06:56:08;30.90;90.40
11188;DHT22;5650;52.700;7.306;2023-07-09T06:58:37;31.00;90.10
11188;DHT22;5650;52.700;7.306;2023-07-09T07:01:07;31.00;90.00
11188;DHT22;5650;52.700;7.306;2023-07-09T07:03:36;31.00;90.00
11188;DHT22;5650;52.700;7.306;2023-07-09T07:06:06;31.10;89.90
11188;DHT22;5650;52.700;7.306;2023-07-09T07:08:37;31.20;89.70
11188;DHT22;5650;52.700;7.306;2023-07-09T07:11:04;31.40;89.40
11188;DHT22;5650;52.700;7.306;2023-07-09T07:13:38;31.60;89.10
11188;DHT22;5650;52.700;7.306;2023-07-09T07:16:07;31.70;88.10
11188;DHT22;5650;52.700;7.306;2023-07-09T07:18:35;31.80;87.70
11188;DHT22;5650;52.700;7.306;2023-07-09T07:21:12;31.90;87.70
11188;DHT22;5650;52.700;7.306;2023-07-09T07:23:39;31.90;87.30
11188;DHT22;5650;52.700;7.306;2023-07-09T07:26:06;32.10;87.70
11188;DHT22;5650;52.700;7.306;2023-07-09T07:28:38;32.30;85.80
11188;DHT22;5650;52.700;7.306;2023-07-09T07:31:11;32.40;85.30
11188;DHT22;5650;52.700;7.306;2023-07-09T07:33:41;32.50;85.00
11188;DHT22;5650;52.700;7.306;2023-07-09T07:36:09;32.80;84.60
11188;DHT22;5650;52.700;7.306;2023-07-09T07:38:43;33.10;83.90
11188;DHT22;5650;52.700;7.306;2023-07-09T07:41:17;33.30;82.50
11188;DHT22;5650;52.700;7.306;2023-07-09T07:43:45;33.50;82.50
11188;DHT22;5650;52.700;7.306;2023-07-09T07:46:16;33.80;81.60
11188;DHT22;5650;52.700;7.306;2023-07-09T07:48:46;34.10;79.90
11188;DHT22;5650;52.700;7.306;2023-07-09T07:51:13;34.30;78.80
11188;DHT22;5650;52.700;7.306;2023-07-09T07:53:46;34.50;78.30
11188;DHT22;5650;52.700;7.306;2023-07-09T07:56:14;34.60;77.00
11188;DHT22;5650;52.700;7.306;2023-07-09T07:58:46;34.50;77.10
11188;DHT22;5650;52.700;7.306;2023-07-09T08:01:13;34.60;77.10
11188;DHT22;5650;52.700;7.306;2023-07-09T08:03:43;34.60;77.50
11188;DHT22;5650;52.700;7.306;2023-07-09T08:06:19;34.80;77.10
11188;DHT22;5650;52.700;7.306;2023-07-09T08:08:47;34.90;76.80
11188;DHT22;5650;52.700;7.306;2023-07-09T08:11:15;34.90;77.10
11188;DHT22;5650;52.700;7.306;2023-07-09T08:13:42;34.80;76.70
11188;DHT22;5650;52.700;7.306;2023-07-09T08:16:19;34.70;76.20
11188;DHT22;5650;52.700;7.306;2023-07-09T08:18:46;34.60;76.50
11188;DHT22;5650;52.700;7.306;2023-07-09T08:21:16;34.60;76.60
11188;DHT22;5650;52.700;7.306;2023-07-09T08:23:45;34.50;76.70
11188;DHT22;5650;52.700;7.306;2023-07-09T08:26:15;34.50;76.70
11188;DHT22;5650;52.700;7.306;2023-07-09T08:28:42;34.30;76.20
11188;DHT22;5650;52.700;7.306;2023-07-09T08:31:14;34.10;76.30
11188;DHT22;5650;52.700;7.306;2023-07-09T08:33:44;33.90;76.50
11188;DHT22;5650;52.700;7.306;2023-07-09T08:36:11;33.80;77.00
11188;DHT22;5650;52.700;7.306;2023-07-09T08:38:44;33.80;77.30
11188;DHT22;5650;52.700;7.306;2023-07-09T08:41:24;33.80;77.80
11188;DHT22;5650;52.700;7.306;2023-07-09T08:44:14;33.70;76.70
11188;DHT22;5650;52.700;7.306;2023-07-09T08:46:58;33.60;77.40
11188;DHT22;5650;52.700;7.306;2023-07-09T08:49:34;33.50;77.20
11188;DHT22;5650;52.700;7.306;2023-07-09T08:52:16;33.40;78.00
11188;DHT22;5650;52.700;7.306;2023-07-09T08:54:49;33.30;78.20
11188;DHT22;5650;52.700;7.306;2023-07-09T08:57:21;33.40;78.60
11188;DHT22;5650;52.700;7.306;2023-07-09T08:59:53;33.40;78.70
11188;DHT22;5650;52.700;7.306;2023-07-09T09:02:31;33.30;78.00
11188;DHT22;5650;52.700;7.306;2023-07-09T09:04:59;33.40;77.80
11188;DHT22;5650;52.700;7.306;2023-07-09T09:07:39;33.40;77.90
11188;DHT22;5650;52.700;7.306;2023-07-09T09:10:12;33.40;77.10
11188;DHT22;5650;52.700;7.306;2023-07-09T09:12:50;33.50;76.90
11188;DHT22;5650;52.700;7.306;2023-07-09T09:15:20;33.60;76.70
11188;DHT22;5650;52.700;7.306;2023-07-09T09:17:54;33.70;75.90
11188;DHT22;5650;52.700;7.306;2023-07-09T09:20:22;33.80;74.40
11188;DHT22;5650;52.700;7.306;2023-07-09T09:22:54;33.70;73.60
11188;DHT22;5650;52.700;7.306;2023-07-09T09:25:26;33.60;74.00
11188;DHT22;5650;52.700;7.306;2023-07-09T09:27:54;33.40;73.80
11188;DHT22;5650;52.700;7.306;2023-07-09T09:30:25;33.30;74.50
11188;DHT22;5650;52.700;7.306;2023-07-09T09:32:55;33.20;75.70
11188;DHT22;5650;52.700;7.306;2023-07-09T09:35:35;33.10;76.70
11188;DHT22;5650;52.700;7.306;2023-07-09T09:38:21;33.00;76.70
11188;DHT22;5650;52.700;7.306;2023-07-09T09:41:00;32.90;77.30
11188;DHT22;5650;52.700;7.306;2023-07-09T09:43:32;32.90;77.10
11188;DHT22;5650;52.700;7.306;2023-07-09T09:45:59;32.80;75.90
11188;DHT22;5650;52.700;7.306;2023-07-09T09:48:31;32.70;75.80
11188;DHT22;5650;52.700;7.306;2023-07-09T09:50:59;32.60;75.50
11188;DHT22;5650;52.700;7.306;2023-07-09T09:53:39;32.60;75.60
11188;DHT22;5650;52.700;7.306;2023-07-09T09:56:19;32.60;76.00
11188;DHT22;5650;52.700;7.306;2023-07-09T09:58:52;32.70;74.80
11188;DHT22;5650;52.700;7.306;2023-07-09T10:01:29;32.70;75.00
11188;DHT22;5650;52.700;7.306;2023-07-09T10:03:59;32.70;74.60
11188;DHT22;5650;52.700;7.306;2023-07-09T10:06:37;32.90;75.20
11188;DHT22;5650;52.700;7.306;2023-07-09T10:09:13;32.90;75.80
11188;DHT22;5650;52.700;7.306;2023-07-09T10:11:46;33.00;76.50
11188;DHT22;5650;52.700;7.306;2023-07-09T10:14:49;33.00;76.60
11188;DHT22;5650;52.700;7.306;2023-07-09T10:17:23;33.10;76.20
11188;DHT22;5650;52.700;7.306;2023-07-09T10:20:07;33.10;75.60
11188;DHT22;5650;52.700;7.306;2023-07-09T10:22:43;33.10;75.90
11188;DHT22;5650;52.700;7.306;2023-07-09T10:25:30;33.00;76.30
11188;DHT22;5650;52.700;7.306;2023-07-09T10:31:07;33.00;76.20
11188;DHT22;5650;52.700;7.306;2023-07-09T10:33:45;33.00;75.90
11188;DHT22;5650;52.700;7.306;2023-07-09T10:36:30;32.90;76.10
11188;DHT22;5650;52.700;7.306;2023-07-09T10:39:05;32.90;76.30
11188;DHT22;5650;52.700;7.306;2023-07-09T10:41:36;32.80;75.80
11188;DHT22;5650;52.700;7.306;2023-07-09T10:44:09;32.80;75.40
11188;DHT22;5650;52.700;7.306;2023-07-09T10:46:40;32.80;75.40
11188;DHT22;5650;52.700;7.306;2023-07-09T10:49:14;32.70;75.70
11188;DHT22;5650;52.700;7.306;2023-07-09T10:51:48;32.70;75.50
11188;DHT22;5650;52.700;7.306;2023-07-09T10:54:24;32.70;75.70
11188;DHT22;5650;52.700;7.306;2023-07-09T10:57:03;32.70;75.40
11188;DHT22;5650;52.700;7.306;2023-07-09T10:59:37;32.70;75.50
11188;DHT22;5650;52.700;7.306;2023-07-09T11:02:18;32.70;75.80
11188;DHT22;5650;52.700;7.306;2023-07-09T11:04:51;32.70;75.60
11188;DHT22;5650;52.700;7.306;2023-07-09T11:07:26;32.80;75.50
11188;DHT22;5650;52.700;7.306;2023-07-09T11:09:55;32.80;75.60
11188;DHT22;5650;52.700;7.306;2023-07-09T11:12:30;32.90;76.30
11188;DHT22;5650;52.700;7.306;2023-07-09T11:15:05;33.00;75.00
11188;DHT22;5650;52.700;7.306;2023-07-09T11:17:43;33.10;75.40
11188;DHT22;5650;52.700;7.306;2023-07-09T11:20:18;33.20;74.50
11188;DHT22;5650;52.700;7.306;2023-07-09T11:22:54;33.20;74.20
11188;DHT22;5650;52.700;7.306;2023-07-09T11:25:42;33.20;75.50
11188;DHT22;5650;52.700;7.306;2023-07-09T11:28:12;33.40;75.30
11188;DHT22;5650;52.700;7.306;2023-07-09T11:30:51;33.40;75.60
11188;DHT22;5650;52.700;7.306;2023-07-09T11:33:20;33.50;74.80
11188;DHT22;5650;52.700;7.306;2023-07-09T11:35:49;33.40;73.60
11188;DHT22;5650;52.700;7.306;2023-07-09T11:38:19;33.40;74.20
11188;DHT22;5650;52.700;7.306;2023-07-09T11:40:55;33.30;74.50
11188;DHT22;5650;52.700;7.306;2023-07-09T11:43:32;33.50;75.30
11188;DHT22;5650;52.700;7.306;2023-07-09T11:46:11;33.60;74.30
11188;DHT22;5650;52.700;7.306;2023-07-09T11:48:40;33.70;73.50
11188;DHT22;5650;52.700;7.306;2023-07-09T11:51:14;33.80;72.10
11188;DHT22;5650;52.700;7.306;2023-07-09T11:53:47;33.90;72.20
11188;DHT22;5650;52.700;7.306;2023-07-09T11:56:18;33.90;72.20
11188;DHT22;5650;52.700;7.306;2023-07-09T11:58:49;33.90;71.40
11188;DHT22;5650;52.700;7.306;2023-07-09T12:01:19;33.80;71.00
11188;DHT22;5650;52.700;7.306;2023-07-09T12:03:48;33.80;71.40
11188;DHT22;5650;52.700;7.306;2023-07-09T12:06:20;33.70;71.60
11188;DHT22;5650;52.700;7.306;2023-07-09T12:08:50;33.70;71.60
11188;DHT22;5650;52.700;7.306;2023-07-09T12:11:20;33.70;71.10
11188;DHT22;5650;52.700;7.306;2023-07-09T12:13:51;33.70;70.20
11188;DHT22;5650;52.700;7.306;2023-07-09T12:16:24;33.70;71.60
11188;DHT22;5650;52.700;7.306;2023-07-09T12:18:52;33.70;71.50
11188;DHT22;5650;52.700;7.306;2023-07-09T12:21:19;33.70;69.80
11188;DHT22;5650;52.700;7.306;2023-07-09T12:23:48;33.60;70.10
11188;DHT22;5650;52.700;7.306;2023-07-09T12:26:17;33.60;69.30
11188;DHT22;5650;52.700;7.306;2023-07-09T12:28:49;33.60;70.30
11188;DHT22;5650;52.700;7.306;2023-07-09T12:31:17;33.70;70.80
11188;DHT22;5650;52.700;7.306;2023-07-09T12:33:48;33.70;70.30
11188;DHT22;5650;52.700;7.306;2023-07-09T12:36:17;33.70;70.10
11188;DHT22;5650;52.700;7.306;2023-07-09T12:38:47;33.80;70.90
11188;DHT22;5650;52.700;7.306;2023-07-09T12:41:20;33.90;71.80
11188;DHT22;5650;52.700;7.306;2023-07-09T12:43:50;34.00;71.70
11188;DHT22;5650;52.700;7.306;2023-07-09T12:46:19;34.10;71.90
11188;DHT22;5650;52.700;7.306;2023-07-09T12:48:48;34.10;71.40
11188;DHT22;5650;52.700;7.306;2023-07-09T12:51:20;34.10;71.90
11188;DHT22;5650;52.700;7.306;2023-07-09T12:53:48;34.10;71.10
11188;DHT22;5650;52.700;7.306;2023-07-09T12:56:17;34.20;70.50
11188;DHT22;5650;52.700;7.306;2023-07-09T12:58:46;34.20;70.80
11188;DHT22;5650;52.700;7.306;2023-07-09T13:01:16;34.10;69.70
11188;DHT22;5650;52.700;7.306;2023-07-09T13:03:54;34.10;69.80
11188;DHT22;5650;52.700;7.306;2023-07-09T13:06:30;34.00;71.30
11188;DHT22;5650;52.700;7.306;2023-07-09T13:09:10;33.90;71.00
11188;DHT22;5650;52.700;7.306;2023-07-09T13:11:40;33.90;71.50
11188;DHT22;5650;52.700;7.306;2023-07-09T13:14:20;33.90;72.40
11188;DHT22;5650;52.700;7.306;2023-07-09T13:16:47;33.90;73.20
11188;DHT22;5650;52.700;7.306;2023-07-09T13:19:15;33.90;72.50
11188;DHT22;5650;52.700;7.306;2023-07-09T13:21:46;33.90;72.80
11188;DHT22;5650;52.700;7.306;2023-07-09T13:24:17;34.00;72.80
11188;DHT22;5650;52.700;7.306;2023-07-09T13:26:47;34.10;71.60
11188;DHT22;5650;52.700;7.306;2023-07-09T13:29:15;34.20;71.50
11188;DHT22;5650;52.700;7.306;2023-07-09T13:31:43;34.30;71.40
11188;DHT22;5650;52.700;7.306;2023-07-09T13:34:21;34.20;69.80
11188;DHT22;5650;52.700;7.306;2023-07-09T13:36:49;34.20;69.80
11188;DHT22;5650;52.700;7.306;2023-07-09T13:39:17;34.20;70.40
11188;DHT22;5650;52.700;7.306;2023-07-09T13:41:47;34.20;70.20
11188;DHT22;5650;52.700;7.306;2023-07-09T13:44:17;34.20;69.70
11188;DHT22;5650;52.700;7.306;2023-07-09T13:46:45;34.20;70.60
11188;DHT22;5650;52.700;7.306;2023-07-09T13:49:15;34.30;71.30
11188;DHT22;5650;52.700;7.306;2023-07-09T13:51:44;34.30;72.20
11188;DHT22;5650;52.700;7.306;2023-07-09T13:54:14;34.40;71.20
11188;DHT22;5650;52.700;7.306;2023-07-09T13:56:43;34.40;71.60
11188;DHT22;5650;52.700;7.306;2023-07-09T13:59:17;34.50;70.60
11188;DHT22;5650;52.700;7.306;2023-07-09T14:01:45;34.40;70.00
11188;DHT22;5650;52.700;7.306;2023-07-09T14:04:17;34.30;69.80
11188;DHT22;5650;52.700;7.306;2023-07-09T14:06:44;34.30;69.80
11188;DHT22;5650;52.700;7.306;2023-07-09T14:09:12;34.50;70.90
11188;DHT22;5650;52.700;7.306;2023-07-09T14:11:42;34.50;70.00
11188;DHT22;5650;52.700;7.306;2023-07-09T14:14:21;34.70;70.00
11188;DHT22;5650;52.700;7.306;2023-07-09T14:16:50;34.80;69.50
11188;DHT22;5650;52.700;7.306;2023-07-09T14:19:23;34.90;69.20
11188;DHT22;5650;52.700;7.306;2023-07-09T14:21:51;35.00;69.60
11188;DHT22;5650;52.700;7.306;2023-07-09T14:24:20;34.90;68.80
11188;DHT22;5650;52.700;7.306;2023-07-09T14:26:48;34.80;68.30
11188;DHT22;5650;52.700;7.306;2023-07-09T14:29:16;34.80;68.70
11188;DHT22;5650;52.700;7.306;2023-07-09T14:31:46;34.70;69.10
11188;DHT22;5650;52.700;7.306;2023-07-09T14:34:21;34.40;69.00
11188;DHT22;5650;52.700;7.306;2023-07-09T14:36:50;34.30;69.80
11188;DHT22;5650;52.700;7.306;2023-07-09T14:39:20;34.20;70.00
11188;DHT22;5650;52.700;7.306;2023-07-09T14:41:47;34.10;70.90
11188;DHT22;5650;52.700;7.306;2023-07-09T14:44:23;34.00;71.00
11188;DHT22;5650;52.700;7.306;2023-07-09T14:47:00;33.80;71.40
11188;DHT22;5650;52.700;7.306;2023-07-09T14:49:28;33.60;71.50
11188;DHT22;5650;52.700;7.306;2023-07-09T14:51:58;33.50;71.80
11188;DHT22;5650;52.700;7.306;2023-07-09T14:54:30;33.40;71.80
11188;DHT22;5650;52.700;7.306;2023-07-09T14:56:58;33.30;72.10
11188;DHT22;5650;52.700;7.306;2023-07-09T14:59:26;33.20;72.90
11188;DHT22;5650;52.700;7.306;2023-07-09T15:01:59;33.10;74.10
11188;DHT22;5650;52.700;7.306;2023-07-09T15:04:30;33.00;74.10
11188;DHT22;5650;52.700;7.306;2023-07-09T15:06:59;32.90;74.50
11188;DHT22;5650;52.700;7.306;2023-07-09T15:09:28;32.90;75.10
11188;DHT22;5650;52.700;7.306;2023-07-09T15:11:56;32.80;76.10
11188;DHT22;5650;52.700;7.306;2023-07-09T15:14:25;32.70;76.90
11188;DHT22;5650;52.700;7.306;2023-07-09T15:16:53;32.70;78.30
11188;DHT22;5650;52.700;7.306;2023-07-09T15:19:22;32.70;79.00
11188;DHT22;5650;52.700;7.306;2023-07-09T15:21:50;32.70;78.90
11188;DHT22;5650;52.700;7.306;2023-07-09T15:24:21;32.70;78.70
11188;DHT22;5650;52.700;7.306;2023-07-09T15:26:52;32.80;77.10
11188;DHT22;5650;52.700;7.306;2023-07-09T15:29:20;32.80;77.00
11188;DHT22;5650;52.700;7.306;2023-07-09T15:31:48;32.70;77.50
11188;DHT22;5650;52.700;7.306;2023-07-09T15:34:15;32.70;78.50
11188;DHT22;5650;52.700;7.306;2023-07-09T15:36:46;32.70;78.30
11188;DHT22;5650;52.700;7.306;2023-07-09T15:39:14;32.70;78.40
11188;DHT22;5650;52.700;7.306;2023-07-09T15:41:42;32.70;79.00
11188;DHT22;5650;52.700;7.306;2023-07-09T15:44:10;32.70;79.50
11188;DHT22;5650;52.700;7.306;2023-07-09T15:46:39;32.60;79.40
11188;DHT22;5650;52.700;7.306;2023-07-09T15:49:07;32.50;80.10
11188;DHT22;5650;52.700;7.306;2023-07-09T15:51:34;32.40;81.30
11188;DHT22;5650;52.700;7.306;2023-07-09T15:54:07;32.30;83.60
11188;DHT22;5650;52.700;7.306;2023-07-09T15:56:36;32.10;86.00
11188;DHT22;5650;52.700;7.306;2023-07-09T15:59:03;32.00;85.60
11188;DHT22;5650;52.700;7.306;2023-07-09T16:01:30;31.90;86.60
11188;DHT22;5650;52.700;7.306;2023-07-09T16:03:59;31.70;86.30
11188;DHT22;5650;52.700;7.306;2023-07-09T16:06:28;31.60;86.30
11188;DHT22;5650;52.700;7.306;2023-07-09T16:08:55;31.40;86.40
11188;DHT22;5650;52.700;7.306;2023-07-09T16:11:24;31.30;87.00
11188;DHT22;5650;52.700;7.306;2023-07-09T16:13:52;31.20;87.90